Flight Track Log - Related Links

Times and Time Zones

All times are in EDT time to prevent confusion due to time zone crossing. See the AIE861 flight status page for this flight to view local times or setup timezone preferences in your user account.

Time Position Orientation Groundspeed Altitude Reporting Facility
EDT Latitude Longitude Course Direction KTS MPH feet Rate Location/Type
Mon 07:10:21 AM 47.0000 -65.4333 360° North 150 173 900  Level Moncton Center
Mon 07:11:21 AM 47.0333 -65.4333 360° North 120 138 2,200 1,300 Climbing Moncton Center
Mon 07:12:21 AM 47.0000 -65.4833 226° Southwest 160 184 3,500 1,450 Climbing Moncton Center
Mon 07:13:21 AM 46.9667 -65.5500 234° Southwest 170 196 5,100 1,550 Climbing Moncton Center
Mon 07:14:21 AM 46.9500 -65.6000 244° Southwest 170 196 6,600 1,450 Climbing Moncton Center
Mon 07:15:21 AM 46.9500 -65.6667 270° West 170 196 8,000 1,350 Climbing Moncton Center
Mon 07:16:21 AM 46.9333 -65.7500 254° West 170 196 9,300 1,250 Climbing Moncton Center
Mon 07:17:21 AM 46.9167 -65.8167 250° West 180 207 10,500 1,200 Climbing Moncton Center
Mon 07:18:21 AM 46.9167 -65.8667 270° West 170 196 11,700 950 Climbing Moncton Center
Mon 07:19:21 AM 46.9000 -65.9333 250° West 170 196 12,400 800 Climbing Moncton Center
Mon 07:20:21 AM 46.8833 -66.0167 254° West 180 207 13,300 800 Climbing Moncton Center
Mon 07:21:21 AM 46.8833 -66.0833 270° West 180 207 14,000 750 Climbing Moncton Center
Mon 07:22:21 AM 46.8667 -66.1667 254° West 180 207 14,800 650 Climbing Moncton Center
Mon 07:23:21 AM 46.8500 -66.2333 250° West 180 207 15,300 600 Climbing Moncton Center
Mon 07:24:21 AM 46.8500 -66.3000 270° West 190 219 16,000 650 Climbing Moncton Center
Mon 07:25:21 AM 46.8333 -66.3833 254° West 180 207 16,600 600 Climbing Moncton Center
Mon 07:26:21 AM 46.8167 -66.4500 250° West 190 219 17,200 650 Climbing Moncton Center
Mon 07:27:21 AM 46.8000 -66.5167 250° West 190 219 17,900 500 Climbing Moncton Center
Mon 07:28:21 AM 46.7833 -66.6000 254° West 180 207 18,200 400 Climbing Moncton Center
Mon 07:29:21 AM 46.7667 -66.6667 250° West 190 219 18,700 500 Climbing Moncton Center
Mon 07:30:21 AM 46.7500 -66.7500 254° West 180 207 19,200 450 Climbing Moncton Center
Mon 07:31:21 AM 46.7500 -66.8167 270° West 190 219 19,600 350 Climbing Moncton Center
Mon 07:32:21 AM 46.7333 -66.8833 250° West 190 219 19,900 400 Climbing Moncton Center
Mon 07:33:21 AM 46.7167 -66.9667 254° West 190 219 20,400 450 Climbing Moncton Center
Mon 07:34:21 AM 46.7167 -67.0333 270° West 190 219 20,800 300 Climbing Moncton Center
Mon 07:35:21 AM 46.7000 -67.1000 250° West 180 207 21,000 250 Climbing Moncton Center
Mon 07:36:21 AM 46.6833 -67.1833 254° West 190 219 21,300 400 Climbing Moncton Center
Mon 07:37:21 AM 46.6667 -67.2500 250° West 180 207 21,800 500 Climbing Moncton Center
Mon 07:38:21 AM 46.6500 -67.3167 250° West 180 207 22,300 450 Climbing Moncton Center
Mon 07:39:21 AM 46.6333 -67.4000 254° West 170 196 22,700 550 Climbing Moncton Center
Mon 07:40:21 AM 46.6167 -67.4500 244° Southwest 170 196 23,400 500 Climbing Moncton Center
Mon 07:41:21 AM 46.6167 -67.5167 270° West 160 184 23,700 300 Climbing Moncton Center
Mon 07:42:21 AM 46.6000 -67.5833 250° West 160 184 24,000 150 Climbing Moncton Center
Mon 07:43:21 AM 46.5833 -67.6667 254° West 170 196 24,000  Level Moncton Center
Mon 07:44:21 AM 46.5833 -67.7333 270° West 180 207 24,000  Level Moncton Center
Mon 07:45:21 AM 46.5667 -67.8000 250° West 190 219 24,000  Level Moncton Center
Mon 07:46:21 AM 46.5333 -67.8833 240° Southwest 190 219 24,000  Level Moncton Center
Mon 07:47:21 AM 46.5333 -67.9500 270° West 190 219 24,000  Level Moncton Center
Mon 07:48:21 AM 46.5167 -68.0167 250° West 190 219 24,000  Level Moncton Center
Mon 07:49:21 AM 46.5000 -68.1000 254° West 190 219 24,000  Level Moncton Center
Mon 07:50:21 AM 46.4833 -68.1667 250° West 190 219 24,000  Level Moncton Center
Mon 07:51:21 AM 46.4667 -68.2333 250° West 190 219 24,000  Level Moncton Center
Mon 07:52:21 AM 46.4667 -68.3167 270° West 190 219 24,000  Level Moncton Center
Mon 07:53:21 AM 46.4333 -68.4000 240° Southwest 190 219 24,000  Level Moncton Center
Mon 07:54:21 AM 46.4167 -68.4833 254° West 190 219 24,000  Level Moncton Center
Mon 07:55:21 AM 46.4000 -68.5500 250° West 210 242 24,000  Level Moncton Center
Mon 07:56:21 AM 46.4000 -68.6167 270° West 190 219 24,000  Level Moncton Center
Mon 07:57:21 AM 46.3833 -68.7000 254° West 200 230 24,000  Level Moncton Center
Mon 07:58:21 AM 46.3667 -68.7667 250° West 200 230 24,000  Level Moncton Center
Mon 07:59:21 AM 46.3333 -68.8667 244° Southwest 200 230 24,000  Level Moncton Center
Mon 08:00:21 AM 46.3167 -68.9333 250° West 200 230 24,000  Level Moncton Center
Mon 08:01:21 AM 46.3167 -69.0000 270° West 200 230 24,000  Level Moncton Center
Mon 08:02:21 AM 46.3000 -69.1000 256° West 200 230 24,000  Level Moncton Center
Mon 08:03:21 AM 46.2833 -69.1667 250° West 200 230 24,000  Level Moncton Center
Mon 08:04:21 AM 46.2500 -69.2333 234° Southwest 200 230 24,000  Level Moncton Center
Mon 08:05:21 AM 46.2500 -69.3167 270° West 200 230 24,000  Level Moncton Center
Mon 08:06:21 AM 46.2333 -69.4000 254° West 220 253 24,000  Level Moncton Center
Mon 08:07:21 AM 46.2167 -69.4833 254° West 200 230 24,000  Level Moncton Center
Mon 08:08:21 AM 46.2000 -69.5500 250° West 190 219 24,000  Level Moncton Center
Mon 08:09:21 AM 46.1667 -69.6500 244° Southwest 200 230 24,000  Level Moncton Center
Mon 08:10:21 AM 46.1667 -69.7167 270° West 210 242 24,000  Level Moncton Center
Mon 08:11:21 AM 46.1500 -69.7833 250° West 200 230 24,000  Level Moncton Center
Mon 08:12:21 AM 46.1333 -69.8833 257° West 200 230 24,000  Level Moncton Center
Mon 08:13:21 AM 46.1000 -69.9500 234° Southwest 210 242 24,000  Level Moncton Center
Mon 08:14:21 AM 46.1000 -70.0167 270° West 210 242 24,000  Level Moncton Center
Mon 08:15:21 AM 46.0833 -70.1167 257° West 210 242 24,000  Level Moncton Center
Mon 08:16:21 AM 46.0667 -70.1833 250° West 210 242 24,000  Level Moncton Center
Mon 08:17:21 AM 46.0333 -70.2500 234° Southwest 210 242 24,000  Level Moncton Center
Mon 08:18:21 AM 46.0167 -70.3500 257° West 210 242 24,000  Level Moncton Center
Mon 08:19:21 AM 46.0167 -70.4167 270° West 210 242 24,000  Level Moncton Center
Mon 08:20:21 AM 46.0000 -70.5167 257° West 210 242 24,000  Level Moncton Center
Mon 08:21:21 AM 45.9667 -70.5833 234° Southwest 210 242 24,000  Level Moncton Center
Mon 08:22:21 AM 45.9500 -70.6500 250° West 200 230 24,000  Level Moncton Center
Mon 08:23:21 AM 45.9333 -70.7500 257° West 200 230 24,000  Level Moncton Center
Mon 08:24:21 AM 45.9333 -70.8167 270° West 200 230 24,000  Level Moncton Center
Mon 08:25:21 AM 45.9000 -70.9000 240° Southwest 200 230 24,000  Level Moncton Center
Mon 08:26:21 AM 45.9000 -70.9667 270° West 200 230 24,000  Level Moncton Center
Mon 08:27:21 AM 45.9000 -71.0667 270° West 200 230 24,000  Level Moncton Center
Mon 08:28:21 AM 45.8833 -71.1333 250° West 200 230 24,000  Level Moncton Center
Mon 08:29:21 AM 45.8833 -71.2333 270° West 210 242 24,000  Level Moncton Center
Mon 08:30:21 AM 45.8667 -71.3000 250° West 210 242 24,000  Level Moncton Center
Mon 08:31:21 AM 45.8500 -71.4000 257° West 220 253 24,000  Level Moncton Center
Mon 08:32:21 AM 45.8500 -71.4833 270° West 210 242 24,000  Level Moncton Center
Mon 08:33:21 AM 45.8500 -71.5667 270° West 210 242 24,000  Level Moncton Center
Mon 08:34:21 AM 45.8500 -71.6333 270° West 210 242 24,000 -200 Level Moncton Center
Mon 08:35:21 AM 45.8333 -71.7333 257° West 210 242 23,600 -700 Descending Moncton Center
Mon 08:36:21 AM 45.8333 -71.8167 270° West 230 265 22,600 -1,000 Descending Moncton Center
Mon 08:37:21 AM 45.8000 -71.9167 244° Southwest 250 288 21,600 -1,000 Descending Moncton Center
Mon 08:38:21 AM 45.8000 -72.0333 270° West 260 299 20,600 -900 Descending Moncton Center
Mon 08:39:21 AM 45.8000 -72.1333 270° West 260 299 19,800 -750 Descending Moncton Center
Mon 08:40:21 AM 45.7833 -72.2333 257° West 260 299 19,100 -500 Descending Moncton Center
Mon 08:41:21 AM 45.7833 -72.3500 270° West 260 299 18,800 -400 Descending Moncton Center
Mon 08:42:21 AM 45.7667 -72.4333 254° West 260 299 18,300 -400 Descending Moncton Center
Mon 08:43:21 AM 45.7500 -72.5333 257° West 260 299 18,000 -250 Descending Moncton Center
Mon 08:44:21 AM 45.7333 -72.6333 257° West 250 288 17,800 -250 Descending Moncton Center
Mon 08:45:21 AM 45.7333 -72.7500 270° West 250 288 17,500 -350 Descending Moncton Center
Mon 08:46:21 AM 45.7167 -72.8500 257° West 250 288 17,100 -400 Descending Moncton Center
Mon 08:47:21 AM 45.7167 -72.9333 270° West 260 299 16,700 -400 Descending Moncton Center
Mon 08:48:21 AM 45.7000 -73.0500 258° West 260 299 16,300 -350 Descending Moncton Center
Mon 08:49:21 AM 45.6833 -73.1500 257° West 260 299 16,000 -900 Descending Moncton Center
Mon 08:50:21 AM 45.6667 -73.2333 254° West 280 322 14,500 -1,550 Descending Moncton Center
Mon 08:51:21 AM 45.6000 -73.3333 226° Southwest 290 334 12,900 -1,550 Descending Moncton Center
Mon 08:52:21 AM 45.5667 -73.4333 245° Southwest 290 334 11,400 -1,500 Descending Moncton Center
Mon 08:53:21 AM 45.5000 -73.5000 215° Southwest 280 322 9,900 -1,600 Descending Moncton Center
Mon 08:54:21 AM 45.4500 -73.5833 229° Southwest 280 322 8,200 -1,100 Descending Moncton Center
Mon 08:55:21 AM 45.4000 -73.6500 223° Southwest 280 322 7,700 -2,016 Descending Moncton Center
Mon 08:56:26 AM 45.3667 -73.7333 240° Southwest 240 276 4,000 -2,304 Descending Montreal Center
Mon 08:57:26 AM 45.3667 -73.8000 270° West 200 230 2,900 -1,050 Descending Montreal Center
Mon 08:58:26 AM 45.4000 -73.8167 341° North 140 161 1,900 -1,100 Descending Montreal Center
Mon 08:59:26 AM 45.4333 -73.7667 46° Northeast 120 138 700 -900 Descending Montreal Center
Mon 09:00:26 AM 45.4500 -73.7500 35° Northeast 120 138 100 -600 Descending Montreal Center

Login

Don't have an account? Register now (free) for customized features, flight alerts, and more!